createdAt,value
2022-08-24T00:04:57.328Z,21.23
2022-08-24T00:07:43.117Z,22.10
2022-08-24T00:10:28.274Z,20.50
2022-08-24T00:13:14.501Z,20.95
2022-08-24T00:15:59.850Z,22.42
2022-08-24T00:18:45.902Z,21.38
2022-08-24T00:21:31.837Z,22.00
2022-08-24T00:24:17.706Z,22.15
2022-08-24T00:27:03.662Z,24.55
2022-08-24T00:29:52.065Z,23.70
2022-08-24T00:32:40.353Z,25.52
2022-08-24T00:35:26.438Z,25.33
2022-08-24T00:38:11.853Z,25.00
2022-08-24T00:40:57.431Z,26.60
2022-08-24T00:46:58.199Z,27.10
2022-08-24T00:49:54.540Z,28.27
2022-08-24T00:52:47.111Z,28.67
2022-08-24T00:55:42.030Z,28.30
2022-08-24T00:58:57.169Z,26.95
2022-08-24T01:01:44.403Z,27.80
2022-08-24T01:04:39.340Z,27.75
2022-08-24T01:07:28.057Z,26.80
2022-08-24T01:10:16.690Z,27.50
2022-08-24T01:13:05.807Z,27.67
2022-08-24T01:15:54.620Z,27.17
2022-08-24T01:18:49.769Z,26.70
2022-08-24T01:21:42.208Z,26.27
2022-08-24T01:24:27.368Z,27.60
2022-08-24T01:30:05.377Z,27.60
2022-08-24T01:32:56.686Z,27.95
2022-08-24T01:35:42.108Z,28.52
2022-08-24T01:38:28.377Z,27.00
2022-08-24T01:41:14.233Z,26.63
2022-08-24T01:43:59.867Z,26.63
2022-08-24T01:46:50.337Z,27.60
2022-08-24T01:49:38.556Z,27.20
2022-08-24T01:52:29.731Z,26.05
2022-08-24T01:55:22.723Z,25.67
2022-08-24T01:58:08.661Z,24.77
2022-08-24T02:00:53.993Z,25.42
2022-08-24T02:03:39.840Z,25.55
2022-08-24T02:06:27.238Z,24.15
2022-08-24T02:09:13.045Z,25.55
2022-08-24T02:11:58.512Z,26.60
2022-08-24T02:14:44.275Z,26.20
2022-08-24T02:20:16.094Z,25.27
2022-08-24T02:23:01.673Z,25.60
2022-08-24T02:25:47.811Z,23.98
2022-08-24T02:28:33.333Z,24.50
2022-08-24T02:34:05.555Z,24.42
2022-08-24T02:36:53.724Z,24.08
2022-08-24T02:39:39.078Z,25.08
2022-08-24T02:45:11.312Z,25.75
2022-08-24T02:47:56.435Z,26.65
2022-08-24T02:53:29.452Z,25.83
2022-08-24T02:56:15.408Z,26.48
2022-08-24T02:59:01.071Z,25.60
2022-08-24T03:04:31.921Z,25.20
2022-08-24T03:07:17.629Z,25.35
2022-08-24T03:10:05.511Z,25.60
2022-08-24T03:12:51.198Z,25.60
2022-08-24T03:15:36.754Z,25.55
2022-08-24T03:21:10.767Z,25.02
2022-08-24T03:23:56.325Z,25.15
2022-08-24T03:26:44.158Z,26.48
2022-08-24T03:29:33.001Z,26.40
2022-08-24T03:32:19.648Z,23.85
2022-08-24T03:35:05.655Z,26.20
2022-08-24T03:37:51.737Z,22.80
2022-08-24T03:40:37.209Z,23.50
2022-08-24T03:46:28.905Z,23.42
2022-08-24T03:49:14.893Z,24.67
2022-08-24T03:52:00.214Z,24.50
2022-08-24T03:54:45.966Z,23.48
2022-08-24T04:00:17.262Z,23.90
2022-08-24T04:03:02.887Z,23.52
2022-08-24T04:05:50.150Z,24.90
2022-08-24T04:08:38.361Z,24.63
2022-08-24T04:11:27.841Z,24.80
2022-08-24T04:14:26.803Z,23.30
2022-08-24T04:17:13.119Z,24.75
2022-08-24T04:19:59.060Z,24.73
2022-08-24T04:22:44.851Z,25.70
2022-08-24T04:25:31.074Z,26.38
2022-08-24T04:28:18.773Z,26.42
2022-08-24T04:31:06.842Z,25.75
2022-08-24T04:33:54.075Z,26.13
2022-08-24T04:36:44.935Z,26.25
2022-08-24T04:39:30.648Z,26.55
2022-08-24T04:45:01.697Z,25.17
2022-08-24T04:47:47.067Z,25.77
2022-08-24T04:50:36.470Z,26.83
2022-08-24T04:53:21.846Z,25.58
2022-08-24T04:56:13.859Z,23.45
2022-08-24T04:58:59.799Z,22.75
2022-08-24T05:01:45.286Z,22.20
2022-08-24T05:07:18.342Z,19.55
2022-08-24T05:10:07.402Z,19.38
2022-08-24T05:12:53.991Z,17.85
2022-08-24T05:15:44.853Z,17.33
2022-08-24T05:18:31.872Z,16.40
2022-08-24T05:21:21.586Z,15.45
2022-08-24T05:24:06.965Z,15.10
2022-08-24T05:26:53.183Z,14.88
2022-08-24T05:29:38.859Z,15.18
2022-08-24T05:32:24.333Z,14.07
2022-08-24T05:37:55.142Z,14.25
2022-08-24T05:40:41.309Z,14.25
2022-08-24T05:43:27.390Z,13.60
2022-08-24T05:46:13.551Z,13.57
2022-08-24T05:48:59.795Z,13.45
2022-08-24T05:51:45.152Z,12.98
2022-08-24T05:54:30.770Z,13.80
2022-08-24T05:57:16.482Z,12.93
2022-08-24T06:00:02.567Z,12.38
2022-08-24T06:02:48.427Z,12.60
2022-08-24T06:08:19.214Z,11.18
2022-08-24T06:11:05.866Z,11.00
2022-08-24T06:13:56.245Z,11.00
2022-08-24T06:16:46.924Z,10.25
2022-08-24T06:19:33.649Z,9.80
2022-08-24T06:22:19.125Z,9.73
2022-08-24T06:25:23.901Z,8.63
2022-08-24T06:28:09.275Z,8.80
2022-08-24T06:31:03.372Z,9.02
2022-08-24T06:33:49.551Z,8.18
2022-08-24T06:36:35.495Z,7.53
2022-08-24T06:39:21.104Z,8.93
2022-08-24T06:42:06.715Z,7.60
2022-08-24T06:44:52.932Z,8.15
2022-08-24T06:47:38.072Z,9.32
2022-08-24T06:53:14.418Z,8.30
2022-08-24T06:56:00.745Z,8.27
2022-08-24T06:58:46.136Z,8.73
2022-08-24T07:01:31.770Z,9.35
2022-08-24T07:04:17.207Z,9.63
2022-08-24T07:09:48.130Z,8.18
2022-08-24T07:12:33.651Z,7.97
2022-08-24T07:15:19.496Z,7.82
2022-08-24T07:18:10.055Z,8.10
2022-08-24T07:20:56.854Z,8.25
2022-08-24T07:23:42.932Z,8.27
2022-08-24T07:26:29.908Z,7.85
2022-08-24T07:29:44.024Z,7.07
2022-08-24T07:32:21.293Z,7.32
2022-08-24T07:35:07.722Z,7.30
2022-08-24T07:37:56.452Z,6.47
2022-08-24T07:41:09.287Z,6.03
2022-08-24T07:43:54.339Z,5.97
2022-08-24T07:46:41.220Z,6.55
2022-08-24T07:49:36.893Z,6.88
2022-08-24T07:52:22.442Z,6.50
2022-08-24T07:55:09.024Z,7.43
2022-08-24T07:57:54.506Z,7.40
2022-08-24T08:00:39.940Z,6.72
2022-08-24T08:03:27.317Z,6.97
2022-08-24T08:06:16.437Z,6.85
2022-08-24T08:09:04.534Z,6.00
2022-08-24T08:11:49.846Z,6.03
2022-08-24T08:14:35.858Z,7.05
2022-08-24T08:17:21.365Z,6.20
2022-08-24T08:20:09.308Z,6.10
2022-08-24T08:23:12.778Z,5.78
2022-08-24T08:25:58.431Z,6.60
2022-08-24T08:28:44.163Z,5.80
2022-08-24T08:31:29.807Z,5.60
2022-08-24T08:34:20.095Z,5.97
2022-08-24T08:37:06.098Z,5.50
2022-08-24T08:39:51.856Z,5.60
2022-08-24T08:43:06.727Z,5.68
2022-08-24T08:49:15.364Z,5.28
2022-08-24T08:52:24.731Z,5.00
2022-08-24T08:55:31.217Z,5.72
2022-08-24T08:58:38.113Z,5.40
2022-08-24T09:01:46.917Z,5.30
2022-08-24T09:04:47.937Z,5.43
2022-08-24T09:07:48.581Z,5.07
2022-08-24T09:10:54.860Z,5.13
2022-08-24T09:14:07.719Z,5.25
2022-08-24T09:17:22.759Z,4.97
2022-08-24T09:20:45.289Z,5.25
2022-08-24T09:23:41.964Z,6.10
2022-08-24T09:26:39.586Z,5.28
2022-08-24T09:29:27.974Z,5.32
2022-08-24T09:32:39.104Z,5.68
2022-08-24T09:36:07.927Z,5.20
2022-08-24T09:39:05.233Z,5.70
2022-08-24T09:41:53.386Z,6.28
2022-08-24T09:44:54.720Z,6.72
2022-08-24T09:47:45.680Z,5.65
2022-08-24T09:50:55.775Z,5.85
2022-08-24T09:53:41.938Z,6.20
2022-08-24T09:56:33.598Z,5.32
2022-08-24T09:59:36.915Z,5.55
2022-08-24T10:02:58.284Z,4.90
2022-08-24T10:06:07.680Z,4.70
2022-08-24T10:09:24.497Z,5.20
2022-08-24T10:12:35.714Z,5.35
2022-08-24T10:15:34.409Z,5.03
2022-08-24T10:18:35.089Z,4.78
2022-08-24T10:21:35.270Z,4.72
2022-08-24T10:24:39.524Z,4.95
2022-08-24T10:27:51.317Z,4.43
2022-08-24T10:31:09.710Z,5.43
2022-08-24T10:34:37.837Z,5.35
2022-08-24T10:38:18.184Z,5.15
2022-08-24T10:41:23.058Z,5.07
2022-08-24T10:44:46.116Z,5.43
2022-08-24T10:47:36.557Z,5.20
2022-08-24T10:50:46.787Z,4.88
2022-08-24T10:53:33.405Z,5.45
2022-08-24T10:56:50.241Z,5.03
2022-08-24T10:59:57.427Z,4.75
2022-08-24T11:02:45.464Z,5.25
2022-08-24T11:05:41.000Z,4.88
2022-08-24T11:11:22.372Z,4.50
2022-08-24T11:14:23.503Z,5.35
2022-08-24T11:17:17.778Z,4.72
2022-08-24T11:20:04.623Z,4.82
2022-08-24T11:23:10.233Z,4.65
2022-08-24T11:25:59.301Z,4.43
2022-08-24T11:28:59.412Z,4.65
2022-08-24T11:31:50.518Z,4.63
2022-08-24T11:34:38.404Z,4.88
2022-08-24T11:37:36.799Z,4.00
2022-08-24T11:40:29.326Z,4.78
2022-08-24T11:43:42.697Z,4.25
2022-08-24T11:46:51.737Z,4.25
2022-08-24T11:49:58.864Z,3.63
2022-08-24T11:52:58.365Z,3.38
2022-08-24T11:55:57.235Z,3.13
2022-08-24T11:59:13.812Z,3.20
2022-08-24T12:02:08.642Z,3.20
2022-08-24T12:05:08.495Z,2.97
2022-08-24T12:08:03.801Z,3.42
2022-08-24T12:11:15.262Z,2.75
2022-08-24T12:14:11.337Z,2.60
2022-08-24T12:17:04.931Z,2.80
2022-08-24T12:19:55.882Z,3.00
2022-08-24T12:22:42.708Z,3.00
2022-08-24T12:25:49.718Z,2.90
2022-08-24T12:28:47.372Z,3.40
2022-08-24T12:31:38.505Z,3.00
2022-08-24T12:34:51.672Z,2.97
2022-08-24T12:37:49.904Z,2.80
2022-08-24T12:40:48.102Z,2.97
2022-08-24T12:43:40.881Z,2.70
2022-08-24T12:46:27.121Z,2.40
2022-08-24T12:49:12.667Z,2.53
2022-08-24T12:52:36.041Z,3.00
2022-08-24T12:55:43.663Z,2.05
2022-08-24T12:58:35.095Z,3.20
2022-08-24T13:01:25.627Z,2.92
2022-08-24T13:04:40.635Z,3.08
2022-08-24T13:07:30.313Z,2.60
2022-08-24T13:10:24.927Z,2.42
2022-08-24T13:13:15.231Z,2.45
2022-08-24T13:16:03.013Z,2.65
2022-08-24T13:18:53.272Z,2.42
2022-08-24T13:21:45.904Z,2.72
2022-08-24T13:24:31.653Z,2.35
2022-08-24T13:27:17.146Z,2.92
2022-08-24T13:30:17.669Z,2.80
2022-08-24T13:33:08.366Z,3.15
2022-08-24T13:36:04.894Z,2.50
2022-08-24T13:39:04.909Z,3.05
2022-08-24T13:42:12.656Z,2.80
2022-08-24T13:45:16.308Z,2.60
2022-08-24T13:48:07.999Z,2.83
2022-08-24T13:51:16.855Z,2.95
2022-08-24T13:54:22.484Z,2.40
2022-08-24T13:57:16.082Z,2.58
2022-08-24T14:00:15.183Z,2.92
2022-08-24T14:03:12.563Z,2.38
2022-08-24T14:06:23.096Z,2.80
2022-08-24T14:09:38.001Z,2.78
2022-08-24T14:12:30.107Z,2.80
2022-08-24T14:15:34.977Z,3.03
2022-08-24T14:18:44.970Z,3.10
2022-08-24T14:21:41.382Z,2.88
2022-08-24T14:24:58.716Z,3.17
2022-08-24T14:28:10.242Z,2.63
2022-08-24T14:31:21.077Z,3.10
2022-08-24T14:34:16.739Z,3.17
2022-08-24T14:37:17.039Z,3.17
2022-08-24T14:40:37.053Z,3.60
2022-08-24T14:43:30.948Z,3.13
2022-08-24T14:46:33.729Z,2.97
2022-08-24T14:49:44.560Z,3.00
2022-08-24T14:52:30.200Z,3.85
2022-08-24T14:55:30.644Z,3.70
2022-08-24T14:58:42.880Z,3.42
2022-08-24T15:01:45.164Z,3.20
2022-08-24T15:04:39.711Z,3.20
2022-08-24T15:07:27.664Z,3.20
2022-08-24T15:10:14.856Z,3.00
2022-08-24T15:13:06.048Z,2.80
2022-08-24T15:16:01.099Z,3.10
2022-08-24T15:19:15.466Z,3.13
2022-08-24T15:22:13.234Z,3.05
2022-08-24T15:25:13.802Z,3.70
2022-08-24T15:28:10.783Z,3.60
2022-08-24T15:31:07.786Z,3.90
2022-08-24T15:33:57.813Z,3.42
2022-08-24T15:36:43.574Z,3.72
2022-08-24T15:39:30.049Z,3.92
2022-08-24T15:42:16.193Z,4.07
2022-08-24T15:45:03.806Z,3.80
2022-08-24T15:47:52.068Z,4.20
2022-08-24T15:50:43.668Z,4.15
2022-08-24T15:53:39.181Z,3.58
2022-08-24T15:56:35.649Z,4.00
2022-08-24T15:59:41.413Z,3.80
2022-08-24T16:05:25.416Z,3.70
2022-08-24T16:08:13.347Z,3.65
2022-08-24T16:11:19.808Z,4.35
2022-08-24T16:14:25.900Z,3.92
2022-08-24T16:17:28.370Z,3.60
2022-08-24T16:20:37.911Z,3.90
2022-08-24T16:23:33.405Z,3.67
2022-08-24T16:29:04.835Z,4.43
2022-08-24T16:31:51.955Z,3.97
2022-08-24T16:34:38.473Z,3.92
2022-08-24T16:37:25.218Z,4.15
2022-08-24T16:40:11.739Z,4.07
2022-08-24T16:42:57.571Z,3.60
2022-08-24T16:45:43.323Z,3.92
2022-08-24T16:48:29.233Z,4.03
2022-08-24T16:51:14.909Z,4.40
2022-08-24T16:54:00.667Z,4.28
2022-08-24T16:56:46.909Z,4.40
2022-08-24T16:59:33.680Z,4.18
2022-08-24T17:02:20.546Z,4.13
2022-08-24T17:05:06.803Z,4.43
2022-08-24T17:07:52.369Z,4.45
2022-08-24T17:10:38.230Z,4.88
2022-08-24T17:13:49.498Z,4.60
2022-08-24T17:16:30.014Z,4.53
2022-08-24T17:19:31.216Z,4.57
2022-08-24T17:22:17.997Z,4.50
2022-08-24T17:25:05.027Z,5.68
2022-08-24T17:27:52.747Z,4.97
2022-08-24T17:30:38.481Z,4.78
2022-08-24T17:33:24.161Z,4.75
2022-08-24T17:36:15.583Z,4.70
2022-08-24T17:39:04.065Z,4.53
2022-08-24T17:41:50.543Z,5.00
2022-08-24T17:44:37.120Z,4.95
2022-08-24T17:47:22.850Z,4.47
2022-08-24T17:50:10.390Z,4.90
2022-08-24T17:52:58.922Z,5.00
2022-08-24T17:55:48.450Z,5.43
2022-08-24T17:58:54.708Z,5.50
2022-08-24T18:01:40.389Z,4.97
2022-08-24T18:04:29.743Z,5.53
2022-08-24T18:07:35.791Z,5.70
2022-08-24T18:10:29.691Z,5.22
2022-08-24T18:13:15.768Z,5.63
2022-08-24T18:16:01.550Z,5.95
2022-08-24T18:18:50.981Z,5.80
2022-08-24T18:21:36.281Z,6.20
2022-08-24T18:24:21.772Z,5.65
2022-08-24T18:27:22.062Z,6.00
2022-08-24T18:30:14.781Z,6.05
2022-08-24T18:33:01.881Z,6.75
2022-08-24T18:35:47.712Z,6.47
2022-08-24T18:38:33.774Z,6.07
2022-08-24T18:41:19.393Z,6.45
2022-08-24T18:44:06.690Z,6.68
2022-08-24T18:46:52.466Z,7.30
2022-08-24T18:49:39.042Z,6.60
2022-08-24T18:52:25.734Z,6.82
2022-08-24T18:55:11.347Z,7.10
2022-08-24T18:57:56.805Z,6.88
2022-08-24T19:00:43.148Z,7.38
2022-08-24T19:03:28.652Z,7.25
2022-08-24T19:06:14.304Z,7.18
2022-08-24T19:08:59.771Z,6.75
2022-08-24T19:14:31.277Z,6.95
2022-08-24T19:17:17.077Z,7.18
2022-08-24T19:20:05.208Z,8.07
2022-08-24T19:22:51.367Z,7.75
2022-08-24T19:25:40.109Z,8.50
2022-08-24T19:28:26.825Z,8.77
2022-08-24T19:31:13.492Z,9.48
2022-08-24T19:34:03.381Z,9.20
2022-08-24T19:36:50.826Z,8.93
2022-08-24T19:39:36.185Z,10.32
2022-08-24T19:42:22.061Z,10.95
2022-08-24T19:45:26.985Z,12.65
2022-08-24T19:48:13.068Z,11.68
2022-08-24T19:51:01.145Z,10.65
2022-08-24T19:53:46.894Z,10.48
2022-08-24T19:59:25.791Z,11.75
2022-08-24T20:02:11.426Z,12.45
2022-08-24T20:04:56.948Z,10.63
2022-08-24T20:07:44.481Z,10.63
2022-08-24T20:10:31.043Z,10.80
2022-08-24T20:13:16.634Z,10.05
2022-08-24T20:16:05.531Z,11.40
2022-08-24T20:18:52.969Z,10.98
2022-08-24T20:21:38.814Z,11.40
2022-08-24T20:24:24.604Z,10.23
2022-08-24T20:27:21.788Z,12.40
2022-08-24T20:30:08.355Z,12.50
2022-08-24T20:32:54.069Z,11.18
2022-08-24T20:35:40.312Z,11.43
2022-08-24T20:38:31.709Z,10.80
2022-08-24T20:41:17.514Z,11.43
2022-08-24T20:46:49.596Z,12.07
2022-08-24T20:49:36.690Z,12.15
2022-08-24T20:52:22.420Z,13.35
2022-08-24T20:55:10.737Z,13.05
2022-08-24T20:58:03.162Z,15.95
2022-08-24T21:00:48.884Z,14.88
2022-08-24T21:03:34.813Z,13.60
2022-08-24T21:06:20.745Z,14.35
2022-08-24T21:09:06.388Z,15.10
2022-08-24T21:11:51.936Z,15.85
2022-08-24T21:17:25.362Z,13.75
2022-08-24T21:20:13.672Z,14.60
2022-08-24T21:22:59.405Z,15.43
2022-08-24T21:25:46.592Z,14.02
2022-08-24T21:28:36.411Z,15.20
2022-08-24T21:31:22.075Z,15.95
2022-08-24T21:34:26.591Z,16.25
2022-08-24T21:37:16.393Z,13.18
2022-08-24T21:40:06.393Z,12.70
2022-08-24T21:42:52.069Z,11.88
2022-08-24T21:48:23.126Z,10.90
2022-08-24T21:51:08.459Z,14.63
2022-08-24T21:53:59.479Z,16.73
2022-08-24T21:56:45.574Z,13.60
2022-08-24T21:59:31.383Z,12.27
2022-08-24T22:02:20.633Z,12.55
2022-08-24T22:05:06.548Z,12.57
2022-08-24T22:07:52.080Z,12.93
2022-08-24T22:10:37.715Z,12.13
2022-08-24T22:13:23.394Z,12.13
2022-08-24T22:16:09.859Z,11.07
2022-08-24T22:18:55.544Z,13.07
2022-08-24T22:21:47.735Z,12.73
2022-08-24T22:24:33.673Z,12.63
2022-08-24T22:27:18.892Z,12.07
2022-08-24T22:30:04.756Z,14.50
2022-08-24T22:32:50.440Z,14.50
2022-08-24T22:35:45.290Z,14.32
2022-08-24T22:38:30.929Z,14.83
2022-08-24T22:41:17.434Z,15.70
2022-08-24T22:44:19.058Z,15.30
2022-08-24T22:47:13.121Z,15.88
2022-08-24T22:52:46.106Z,15.30
2022-08-24T22:55:32.636Z,15.07
2022-08-24T22:58:18.283Z,14.95
2022-08-24T23:01:03.752Z,14.18
2022-08-24T23:03:50.741Z,14.38
2022-08-24T23:06:36.180Z,13.60
2022-08-24T23:09:21.982Z,13.10
2022-08-24T23:12:09.038Z,12.15
2022-08-24T23:14:54.828Z,12.77
2022-08-24T23:17:41.781Z,12.45
2022-08-24T23:20:27.156Z,12.13
2022-08-24T23:25:58.222Z,12.48
2022-08-24T23:28:44.339Z,11.50
2022-08-24T23:31:30.645Z,10.55
2022-08-24T23:34:16.634Z,11.05
2022-08-24T23:37:02.800Z,11.13
2022-08-24T23:39:48.143Z,9.70
2022-08-24T23:42:33.633Z,9.75
2022-08-24T23:45:19.087Z,8.15
2022-08-24T23:48:13.780Z,8.63
2022-08-24T23:51:02.866Z,9.40
2022-08-24T23:53:50.258Z,9.10
2022-08-24T23:56:38.125Z,9.50
2022-08-24T23:59:29.240Z,8.15
